M I D A S
Marine Information and Data Acquisition System
Tripno 426 of the Zeeleeuw from 2003-02-07 07:51:14 to 2003-02-07 13:05:54
Back to CruiseResearch ActivitiesStationsMapUnderway DataData graphs

EquipmentUnitsComments
TimeDGPSUTC
LatitudeDGPSDM.mWGS84
LongitudeDGPSDM.mWGS84
SpeedMeteo Stationm/sRelative wind speed
DirectionMeteo StationdegRelative wind direction
TemperatureMeteo Stationdeg CelciusAir temperature
PressureMeteo StationPaAtmospheric pressure
HumidityMeteo Station%Relative humidity
Missing or incorrect values are displayed as -999
Metereological data collected by the RV Zeeleeuw from 2003-02-07 07:51:14 to 2003-02-07 13:05:54
Time Latitude Longitude Speed Direction Temperature Pressure Humidity
2003-02-07 07:52 51°13.647 2°55.937 2.6 84 5.3 101850 94
2003-02-07 07:53 51°13.662 2°55.86 3.2 94 5.3 101860 94
2003-02-07 07:54 51°13.674 2°55.778 3.6 89 5.3 101850 94
2003-02-07 07:55 51°13.678 2°55.749 2.5 88 5.3 101860 94
2003-02-07 07:56 51°13.707 2°55.749 1.7 16 5.3 101850 94
2003-02-07 07:57 51°13.76 2°55.692 1 343 5.4 101860 94
2003-02-07 07:58 51°13.839 2°55.624 2.3 328 5.4 101860 94
2003-02-07 07:59 51°13.929 2°55.562 3.3 281 5.4 101860 94
2003-02-07 08:00 51°14.027 2°55.492 3.6 289 5.5 101860 94
2003-02-07 08:01 51°14.123 2°55.419 3.4 265 5.5 101860 94
2003-02-07 08:02 51°14.214 2°55.324 4.9 275 5.5 101860 94
2003-02-07 08:03 51°14.29 2°55.205 6.6 293 5.6 101860 95
2003-02-07 08:04 51°14.356 2°55.062 6.8 278 5.7 101860 95
2003-02-07 08:05 51°14.392 2°54.878 9.1 268 5.7 101850 95
2003-02-07 08:06 51°14.402 2°54.669 8.3 263 5.7 101850 95
2003-02-07 08:07 51°14.382 2°54.526 7.6 250 5.7 101850 95
2003-02-07 08:08 51°14.354 2°54.438 6.9 249 5.7 101850 95
2003-02-07 08:09 51°14.33 2°54.371 6.1 247 5.7 101860 95
2003-02-07 08:10 51°14.311 2°54.312 5.7 260 5.7 101860 95
2003-02-07 08:11 51°14.276 2°54.184 11.2 249 5.7 101860 95
2003-02-07 08:12 51°14.213 2°53.893 12.6 247 5.7 101840 95
2003-02-07 08:13 51°14.104 2°53.577 11.7 240 5.7 101830 95
2003-02-07 08:14 51°13.984 2°53.281 11.1 243 5.6 101840 95
2003-02-07 08:15 51°13.879 2°52.983 10.1 243 5.6 101840 94
2003-02-07 08:16 51°13.781 2°52.651 11.4 242 5.6 101860 94
2003-02-07 08:17 51°13.671 2°52.352 10.7 239 5.5 101870 94
2003-02-07 08:18 51°13.558 2°52.042 10.6 238 5.5 101870 94
2003-02-07 08:19 51°13.461 2°51.726 12.2 237 5.5 101880 95
2003-02-07 08:20 51°13.344 2°51.43 12.7 231 5.6 101870 95
2003-02-07 08:21 51°13.229 2°51.131 13.2 237 5.7 101870 95
2003-02-07 08:22 51°13.114 2°50.829 13.3 236 5.8 101870 95
2003-02-07 08:23 51°13 2°50.525 12.5 233 5.8 101880 95
2003-02-07 08:24 51°12.885 2°50.222 12.1 235 5.9 101870 95
2003-02-07 08:25 51°12.771 2°49.917 11.3 237 5.9 101880 95
2003-02-07 08:26 51°12.66 2°49.617 12.8 233 5.9 101880 95
2003-02-07 08:27 51°12.545 2°49.307 11.6 236 5.9 101890 95
2003-02-07 08:28 51°12.432 2°49.001 13 235 5.8 101890 95
2003-02-07 08:29 51°12.323 2°48.695 14.1 233 5.9 101880 95
2003-02-07 08:30 51°12.213 2°48.387 12.7 235 6 101880 95
2003-02-07 08:31 51°12.111 2°48.073 12.6 234 6 101890 95
2003-02-07 08:32 51°12.008 2°47.76 13.6 237 6 101890 95
2003-02-07 08:33 51°11.907 2°47.451 12.8 240 6.1 101880 95
2003-02-07 08:34 51°11.817 2°47.127 13.5 239 6.1 101880 95
2003-02-07 08:35 51°11.729 2°46.791 12.6 240 6.1 101880 95
2003-02-07 08:36 51°11.644 2°46.461 13.3 240 6.1 101880 95
2003-02-07 08:37 51°11.559 2°46.137 12.2 239 6 101880 95
2003-02-07 08:38 51°11.476 2°45.822 11.8 239 6 101880 95
2003-02-07 08:39 51°11.385 2°45.468 12.8 238 6 101900 95
2003-02-07 08:40 51°11.3 2°45.141 12.2 239 5.9 101890 95
2003-02-07 08:41 51°11.213 2°44.804 13 238 5.9 101890 95
2003-02-07 08:42 51°11.126 2°44.472 11.8 238 5.9 101910 95
2003-02-07 08:43 51°11.047 2°44.136 12.5 240 5.9 101900 95
2003-02-07 08:44 51°10.972 2°43.799 12.8 240 5.9 101890 95
2003-02-07 08:45 51°10.893 2°43.45 13.2 235 6 101900 95
2003-02-07 08:46 51°10.813 2°43.082 12.7 234 6 101910 95
2003-02-07 08:47 51°10.735 2°42.706 12 234 6.1 101910 95
2003-02-07 08:48 51°10.663 2°42.339 12.3 238 6 101910 95
2003-02-07 08:49 51°10.587 2°41.953 13.2 237 6 101910 95
2003-02-07 08:50 51°10.515 2°41.581 13.2 240 6 101900 95
2003-02-07 08:51 51°10.443 2°41.207 13.6 240 6 101900 95
2003-02-07 08:52 51°10.372 2°40.839 13.9 240 6 101890 95
2003-02-07 08:53 51°10.298 2°40.457 12.8 239 6 101890 95
2003-02-07 08:54 51°10.226 2°40.08 13.9 239 6 101900 95
2003-02-07 08:55 51°10.154 2°39.704 12.9 240 6.1 101890 95
2003-02-07 08:56 51°10.074 2°39.285 13.2 240 6.1 101900 95
2003-02-07 08:57 51°9.997 2°38.848 13 244 6.1 101900 95
2003-02-07 08:58 51°9.926 2°38.434 12.8 244 6.2 101900 95
2003-02-07 08:59 51°9.866 2°38.087 9.2 241 6.2 101910 95
2003-02-07 09:00 51°9.783 2°37.968 7.6 227 6.3 101940 95
2003-02-07 09:01 51°9.745 2°37.837 6.3 279 6.3 101940 95
2003-02-07 09:02 51°9.785 2°37.748 1.2 339 6.3 101950 95
2003-02-07 09:03 51°9.825 2°37.775 2.8 99 6.3 101960 95
2003-02-07 09:04 51°9.837 2°37.862 1.8 89 6.3 101960 95
2003-02-07 09:05 51°9.86 2°37.955 2.4 104 6.3 101960 95
2003-02-07 09:06 51°9.873 2°38.009 3 89 6.3 101960 95
2003-02-07 09:07 51°9.877 2°38.034 3.9 85 6.2 101960 95
2003-02-07 09:08 51°9.878 2°38.053 3.7 82 6.2 101960 95
2003-02-07 09:09 51°9.878 2°38.067 4.2 85 6.2 101960 95
2003-02-07 09:10 51°9.877 2°38.077 5 87 6.3 101960 95
2003-02-07 09:11 51°9.874 2°38.084 4.2 99 6.3 101960 95
2003-02-07 09:12 51°9.869 2°38.088 4.3 102 6.3 101960 95
2003-02-07 09:13 51°9.865 2°38.09 5.1 105 6.3 101960 95
2003-02-07 09:14 51°9.858 2°38.088 4.6 116 6.3 101960 95
2003-02-07 09:15 51°9.85 2°38.083 4.4 122 6.3 101960 95
2003-02-07 09:16 51°9.841 2°38.074 5.4 130 6.3 101960 95
2003-02-07 09:17 51°9.832 2°38.065 5.2 131 6.3 101960 95
2003-02-07 09:18 51°9.824 2°38.052 5 134 6.3 101970 95
2003-02-07 09:19 51°9.816 2°38.039 5.2 140 6.2 101970 95
2003-02-07 09:20 51°9.806 2°38.024 4.6 146 6.2 101970 95
2003-02-07 09:21 51°9.797 2°38.007 4.2 153 6.2 101970 95
2003-02-07 09:22 51°9.786 2°37.988 4.4 162 6.2 101970 95
2003-02-07 09:23 51°9.776 2°37.969 4.2 169 6.2 101970 95
2003-02-07 09:24 51°9.767 2°37.949 3.8 179 6.2 101970 95
2003-02-07 09:25 51°9.757 2°37.928 3.6 186 6.2 101970 95
2003-02-07 09:26 51°9.748 2°37.907 3.5 187 6.2 101970 95
2003-02-07 09:27 51°9.74 2°37.882 4.3 189 6.2 101970 95
2003-02-07 09:28 51°9.71 2°37.846 7.6 220 6.2 101970 95
2003-02-07 09:29 51°9.641 2°37.621 12.3 244 6.2 101960 95
2003-02-07 09:30 51°9.637 2°37.243 13.1 248 6.3 101940 95
2003-02-07 09:31 51°9.636 2°36.837 13.7 247 6.3 101940 95
2003-02-07 09:32 51°9.635 2°36.435 13 251 6.3 101940 95
2003-02-07 09:33 51°9.658 2°36.048 12.8 260 6.4 101940 95
2003-02-07 09:34 51°9.776 2°35.708 10.1 262 6.4 101950 95
2003-02-07 09:35 51°9.959 2°35.491 8.2 281 6.4 101960 95
2003-02-07 09:36 51°10.183 2°35.4 5.5 279 6.4 101980 95
2003-02-07 09:37 51°10.401 2°35.455 4 274 6.4 101990 95
2003-02-07 09:38 51°10.603 2°35.584 3.7 279 6.4 101990 95
2003-02-07 09:39 51°10.787 2°35.767 2.4 270 6.4 101990 95
2003-02-07 09:40 51°10.958 2°35.981 1.9 251 6.4 101990 95
2003-02-07 09:41 51°11.126 2°36.197 1.8 244 6.4 101990 95
2003-02-07 09:42 51°11.291 2°36.425 2.5 240 6.4 101990 95
2003-02-07 09:43 51°11.458 2°36.66 2.1 241 6.4 102000 95
2003-02-07 09:44 51°11.621 2°36.883 2.3 250 6.4 101990 95
2003-02-07 09:45 51°11.789 2°37.113 2.2 251 6.4 102000 95
2003-02-07 09:46 51°11.954 2°37.339 2.8 265 6.4 102000 95
2003-02-07 09:47 51°12.116 2°37.557 2.8 276 6.4 102000 95
2003-02-07 09:48 51°12.284 2°37.785 2.1 267 6.4 102000 95
2003-02-07 09:49 51°12.458 2°37.986 3.1 284 6.4 102000 95
2003-02-07 09:50 51°12.64 2°38.168 3.4 281 6.4 102000 95
2003-02-07 09:51 51°12.827 2°38.351 3 285 6.4 101990 95
2003-02-07 09:52 51°13.009 2°38.53 2.9 288 6.4 101990 95
2003-02-07 09:53 51°13.197 2°38.715 3.4 286 6.4 101990 95
2003-02-07 09:54 51°13.389 2°38.873 3.7 273 6.4 101990 95
2003-02-07 09:55 51°13.582 2°39.028 3.1 286 6.4 102000 95
2003-02-07 09:56 51°13.791 2°39.159 5.8 288 6.4 101990 95
2003-02-07 09:57 51°14.01 2°39.081 9 275 6.3 101980 95
2003-02-07 09:58 51°14.214 2°38.893 9.5 271 6.3 101980 95
2003-02-07 09:59 51°14.388 2°38.653 13 257 6.3 101980 95
2003-02-07 10:00 51°14.381 2°38.292 13.6 232 6.4 101970 95
2003-02-07 10:01 51°14.242 2°37.951 13.8 234 6.4 101980 95
2003-02-07 10:02 51°14.12 2°37.61 14.1 234 6.4 101970 95
2003-02-07 10:03 51°13.995 2°37.256 13.2 235 6.4 101980 95
2003-02-07 10:04 51°13.875 2°36.903 14.4 235 6.4 101980 95
2003-02-07 10:05 51°13.76 2°36.548 15.6 234 6.4 101980 95
2003-02-07 10:06 51°13.644 2°36.193 15 234 6.5 101980 95
2003-02-07 10:07 51°13.528 2°35.84 14.1 233 6.5 101960 95
2003-02-07 10:08 51°13.41 2°35.487 13.8 233 6.5 101990 95
2003-02-07 10:09 51°13.293 2°35.143 14.6 232 6.5 101980 95
2003-02-07 10:10 51°13.169 2°34.771 13.9 233 6.5 101980 95
2003-02-07 10:11 51°13.053 2°34.419 15.2 235 6.5 101990 95
2003-02-07 10:12 51°12.939 2°34.066 15.3 233 6.6 101980 95
2003-02-07 10:13 51°12.831 2°33.71 14.3 234 6.6 101970 95
2003-02-07 10:14 51°12.724 2°33.351 14.7 234 6.6 101980 95
2003-02-07 10:15 51°12.618 2°32.992 14.9 233 6.6 101970 95
2003-02-07 10:16 51°12.51 2°32.633 14 236 6.6 101980 95
2003-02-07 10:17 51°12.401 2°32.281 15.1 232 6.7 101970 95
2003-02-07 10:18 51°12.293 2°31.93 15.4 238 6.7 101990 95
2003-02-07 10:19 51°12.177 2°31.561 16 233 6.7 101970 95
2003-02-07 10:20 51°12.065 2°31.204 15.2 236 6.8 101970 95
2003-02-07 10:21 51°11.955 2°30.848 15.4 233 6.8 101980 95
2003-02-07 10:22 51°11.846 2°30.487 15.4 236 6.8 101990 95
2003-02-07 10:23 51°11.751 2°30.123 15.7 236 6.8 101970 95
2003-02-07 10:24 51°11.658 2°29.747 15.6 237 6.9 101970 95
2003-02-07 10:25 51°11.569 2°29.368 14.6 239 6.9 101980 95
2003-02-07 10:26 51°11.481 2°28.992 15.6 236 6.8 101980 95
2003-02-07 10:27 51°11.385 2°28.581 14.4 237 6.8 101980 94
2003-02-07 10:28 51°11.298 2°28.19 13.7 238 6.8 101980 94
2003-02-07 10:29 51°11.219 2°27.796 14.2 239 6.8 101980 94
2003-02-07 10:30 51°11.142 2°27.402 13.3 240 6.7 101990 94
2003-02-07 10:31 51°11.06 2°27.012 13.8 241 6.7 101990 94
2003-02-07 10:32 51°10.982 2°26.621 13.8 243 6.7 101990 94
2003-02-07 10:33 51°10.943 2°26.222 13.5 254 6.7 101980 94
2003-02-07 10:34 51°11.004 2°25.838 12 264 6.7 101980 94
2003-02-07 10:35 51°11.125 2°25.499 10.4 273 6.7 101980 94
2003-02-07 10:36 51°11.321 2°25.251 8.2 278 6.7 101990 94
2003-02-07 10:37 51°11.548 2°25.183 5.1 287 6.7 102000 94
2003-02-07 10:38 51°11.767 2°25.296 2.1 321 6.7 102010 94
2003-02-07 10:39 51°11.956 2°25.461 2.4 288 6.8 102010 94
2003-02-07 10:40 51°12.163 2°25.641 2.6 303 6.8 102020 94
2003-02-07 10:41 51°12.346 2°25.804 1.9 340 6.9 102010 94
2003-02-07 10:43 51°12.545 2°25.979 2.8 359 6.9 102010 94
2003-02-07 10:44 51°12.727 2°26.132 2.4 276 7 102010 94
2003-02-07 10:45 51°12.911 2°26.304 0.8 345 7.1 102020 95
2003-02-07 10:46 51°13.078 2°26.536 0.6 311 7.2 102020 95
2003-02-07 10:47 51°13.23 2°26.77 0.1 1 7.2 102010 95
2003-02-07 10:48 51°13.399 2°27.029 0.1 346 7.2 102010 94
2003-02-07 10:49 51°13.564 2°27.28 1.1 277 7.2 102020 94
2003-02-07 10:50 51°13.716 2°27.517 0.5 8 7.2 102010 94
2003-02-07 10:51 51°13.874 2°27.763 0.5 26 7.2 102010 94
2003-02-07 10:52 51°14.021 2°27.995 0.1 33 7.4 102010 94
2003-02-07 10:53 51°14.185 2°28.249 0.6 256 7.4 102010 94
2003-02-07 10:54 51°14.344 2°28.494 0.7 14 7.4 102010 94
2003-02-07 10:55 51°14.493 2°28.722 1.5 353 7.4 102010 94
2003-02-07 10:56 51°14.653 2°28.947 1 346 7.3 102010 94
2003-02-07 10:57 51°14.809 2°29.169 1.2 316 7.3 102010 94
2003-02-07 10:58 51°14.99 2°29.426 0.9 306 7.2 102020 94
2003-02-07 10:59 51°15.146 2°29.65 1.4 294 7.2 102020 94
2003-02-07 11:00 51°15.308 2°29.864 1.3 318 7.1 102020 94
2003-02-07 11:01 51°15.469 2°30.072 2 295 7.1 102020 94
2003-02-07 11:02 51°15.629 2°30.283 1.7 309 7 102020 94
2003-02-07 11:03 51°15.785 2°30.487 1 315 7 102030 94
2003-02-07 11:04 51°15.942 2°30.695 1.8 311 7 102020 94
2003-02-07 11:05 51°16.099 2°30.904 1.6 295 6.9 102020 94
2003-02-07 11:06 51°16.268 2°31.128 1.8 295 6.9 102010 94
2003-02-07 11:07 51°16.429 2°31.341 2 290 6.9 102010 94
2003-02-07 11:08 51°16.589 2°31.553 1.7 299 6.9 102010 94
2003-02-07 11:09 51°16.779 2°31.803 1 290 6.9 102000 94
2003-02-07 11:10 51°16.943 2°32.012 1.3 304 6.9 102010 94
2003-02-07 11:11 51°17.106 2°32.216 2 300 6.8 102000 94
2003-02-07 11:12 51°17.266 2°32.415 0.9 324 6.8 102000 94
2003-02-07 11:13 51°17.426 2°32.612 1.8 295 6.8 101990 94
2003-02-07 11:14 51°17.601 2°32.822 0.7 328 6.8 102000 94
2003-02-07 11:15 51°17.773 2°33.032 1.9 285 6.8 102000 94
2003-02-07 11:17 51°17.954 2°33.249 1.8 305 6.8 101990 94
2003-02-07 11:18 51°18.143 2°33.48 1.6 291 6.8 101990 94
2003-02-07 11:19 51°18.321 2°33.692 2.1 292 6.7 102000 94
2003-02-07 11:20 51°18.501 2°33.914 1.7 302 6.7 101990 94
2003-02-07 11:21 51°18.665 2°34.114 2.3 289 6.7 101990 94
2003-02-07 11:22 51°18.836 2°34.325 2.3 287 6.7 102000 94
2003-02-07 11:23 51°19.009 2°34.525 1.9 288 6.7 101990 94
2003-02-07 11:24 51°19.186 2°34.734 2.1 291 6.7 101990 94
2003-02-07 11:25 51°19.356 2°34.93 2.1 297 6.7 101990 94
2003-02-07 11:26 51°19.525 2°35.12 1.8 298 6.7 101990 94
2003-02-07 11:27 51°19.703 2°35.322 2.4 292 6.7 101990 94
2003-02-07 11:28 51°19.868 2°35.512 2.2 277 6.7 101990 94
2003-02-07 11:29 51°20.038 2°35.709 2 286 6.7 101990 94
2003-02-07 11:30 51°20.202 2°35.902 1.7 281 6.7 101990 94
2003-02-07 11:31 51°20.374 2°36.095 1.8 299 6.7 101990 94
2003-02-07 11:32 51°20.513 2°36.336 0.7 184 6.7 101990 94
2003-02-07 11:33 51°20.6 2°36.632 2.3 154 6.6 101980 94
2003-02-07 11:34 51°20.67 2°36.939 1.9 154 6.6 101980 94
2003-02-07 11:35 51°20.74 2°37.251 3.2 163 6.5 101980 94
2003-02-07 11:36 51°20.793 2°37.577 4.3 167 6.4 101970 94
2003-02-07 11:37 51°20.817 2°37.917 5 166 6.4 101970 94
2003-02-07 11:38 51°20.834 2°38.286 4.6 163 6.3 101970 94
2003-02-07 11:39 51°20.842 2°38.623 5 165 6.3 101970 94
2003-02-07 11:41 51°20.845 2°39.012 4.6 167 6.3 101960 94
2003-02-07 11:42 51°20.847 2°39.351 5.2 173 6.3 101960 94
2003-02-07 11:43 51°20.849 2°39.694 5.5 168 6.3 101960 94
2003-02-07 11:44 51°20.85 2°40.043 5.6 164 6.2 101950 94
2003-02-07 11:45 51°20.852 2°40.386 5.8 167 6.2 101950 94
2003-02-07 11:46 51°20.847 2°40.76 5.9 174 6.2 101950 94
2003-02-07 11:47 51°20.841 2°41.105 5.8 165 6.2 101950 94
2003-02-07 11:48 51°20.835 2°41.446 5.8 173 6.2 101950 94
2003-02-07 11:49 51°20.83 2°41.789 5.6 170 6.2 101950 94
2003-02-07 11:50 51°20.781 2°42.117 6.9 178 6.2 101950 94
2003-02-07 11:51 51°20.677 2°42.433 9 179 6.2 101930 94
2003-02-07 11:52 51°20.576 2°42.747 8 183 6.2 101940 94
2003-02-07 11:53 51°20.469 2°43.089 7.5 180 6.1 101930 94
2003-02-07 11:54 51°20.375 2°43.394 7.8 176 6.1 101930 94
2003-02-07 11:55 51°20.274 2°43.719 7.1 182 6.1 101930 94
2003-02-07 11:56 51°20.179 2°44.029 6.5 183 6 101930 94
2003-02-07 11:57 51°20.087 2°44.342 7.6 181 6 101930 94
2003-02-07 11:58 51°19.996 2°44.654 7.4 182 5.9 101930 94
2003-02-07 11:59 51°19.899 2°44.977 7 178 5.9 101930 94
2003-02-07 12:00 51°19.811 2°45.282 6.8 180 5.9 101930 94
2003-02-07 12:01 51°19.718 2°45.606 8.6 177 5.9 101930 94
2003-02-07 12:02 51°19.624 2°45.914 7.1 181 5.9 101930 94
2003-02-07 12:03 51°19.526 2°46.236 8 177 5.8 101940 94
2003-02-07 12:04 51°19.419 2°46.569 7 179 5.8 101940 94
2003-02-07 12:05 51°19.331 2°46.866 8.4 175 5.7 101940 94
2003-02-07 12:06 51°19.237 2°47.176 8 178 5.7 101940 94
2003-02-07 12:07 51°19.136 2°47.512 8 180 5.6 101930 94
2003-02-07 12:08 51°19.037 2°47.836 7.6 180 5.6 101930 94
2003-02-07 12:09 51°18.944 2°48.15 7.8 174 5.6 101940 94
2003-02-07 12:10 51°18.851 2°48.46 8 170 5.7 101940 94
2003-02-07 12:11 51°18.757 2°48.768 8.3 175 5.7 101940 94
2003-02-07 12:12 51°18.667 2°49.075 7.9 173 5.7 101940 94
2003-02-07 12:13 51°18.556 2°49.436 7.7 163 5.7 101940 94
2003-02-07 12:14 51°18.649 2°49.621 8.8 288 5.7 101960 94
2003-02-07 12:15 51°18.713 2°49.328 14 245 5.8 101920 94
2003-02-07 12:16 51°18.619 2°49.079 11.8 165 5.8 101940 94
2003-02-07 12:17 51°18.56 2°48.998 6.4 176 5.9 101940 94
2003-02-07 12:18 51°18.542 2°48.972 7.1 178 5.8 101950 94
2003-02-07 12:19 51°18.52 2°48.952 7.6 166 5.8 101950 94
2003-02-07 12:20 51°18.5 2°48.935 7 168 5.6 101950 94
2003-02-07 12:21 51°18.48 2°48.918 6.8 162 5.8 101940 94
2003-02-07 12:22 51°18.461 2°48.9 7.4 169 5.8 101950 94
2003-02-07 12:23 51°18.44 2°48.882 6.7 170 5.8 101940 94
2003-02-07 12:24 51°18.416 2°48.868 7.5 164 5.8 101940 94
2003-02-07 12:25 51°18.391 2°48.854 8.2 165 5.8 101940 94
2003-02-07 12:26 51°18.368 2°48.838 7.1 171 5.8 101940 94
2003-02-07 12:27 51°18.348 2°48.822 6.4 171 5.8 101950 94
2003-02-07 12:28 51°18.326 2°48.804 7.1 173 5.8 101950 94
2003-02-07 12:29 51°18.306 2°48.784 6.2 173 5.8 101940 94
2003-02-07 12:30 51°18.284 2°48.767 6.3 172 5.8 101940 94
2003-02-07 12:31 51°18.215 2°48.857 5.9 144 5.8 101940 94
2003-02-07 12:32 51°18.203 2°49.122 4.7 161 5.8 101950 94
2003-02-07 12:33 51°18.203 2°49.478 4.5 166 5.9 101950 94
2003-02-07 12:34 51°18.201 2°49.815 4.5 160 5.9 101940 94
2003-02-07 12:35 51°18.198 2°50.145 4.5 173 5.9 101940 94
2003-02-07 12:36 51°18.183 2°50.476 5.8 169 5.9 101940 94
2003-02-07 12:38 51°18.1 2°50.829 7.8 172 5.9 101930 94
2003-02-07 12:38 51°18.022 2°51.129 7.9 168 5.8 101930 94
2003-02-07 12:40 51°17.93 2°51.467 7.1 174 5.9 101930 95
2003-02-07 12:41 51°17.813 2°51.79 7.7 184 5.9 101930 95
2003-02-07 12:42 51°17.638 2°52.026 8.7 186 5.9 101920 94
2003-02-07 12:43 51°17.441 2°52.227 10.3 196 5.9 101910 95
2003-02-07 12:44 51°17.228 2°52.399 10.5 196 5.9 101920 95
2003-02-07 12:45 51°17.017 2°52.572 10.1 193 6 101910 95
2003-02-07 12:46 51°16.806 2°52.748 11.3 194 6 101920 95
2003-02-07 12:47 51°16.613 2°52.959 8.2 193 6 101910 95
2003-02-07 12:48 51°16.408 2°53.233 7.7 190 6 101920 95
2003-02-07 12:49 51°16.23 2°53.465 8.8 188 6 101920 95
2003-02-07 12:50 51°16.034 2°53.708 9.3 190 6 101920 95
2003-02-07 12:51 51°15.83 2°53.877 9.8 197 6 101910 95
2003-02-07 12:52 51°15.62 2°54.051 10.2 196 6 101920 95
2003-02-07 12:53 51°15.406 2°54.193 11.1 197 6 101920 95
2003-02-07 12:54 51°15.193 2°54.325 11 195 6 101920 95
2003-02-07 12:55 51°14.989 2°54.443 10.9 197 6.1 101920 95
2003-02-07 12:56 51°14.794 2°54.56 10.5 196 6.1 101920 95
2003-02-07 12:57 51°14.608 2°54.703 8.5 188 6.2 101930 95
2003-02-07 12:58 51°14.46 2°54.925 7.6 183 6.3 101930 95
2003-02-07 12:59 51°14.326 2°55.167 5.9 184 6.3 101930 95
2003-02-07 13:00 51°14.22 2°55.331 6.8 166 6.6 101940 95
2003-02-07 13:01 51°14.128 2°55.413 5.8 197 7.2 101940 95
2003-02-07 13:02 51°14.046 2°55.473 4.8 184 7.5 101940 95
2003-02-07 13:03 51°13.962 2°55.535 4.5 185 7.7 101940 95
2003-02-07 13:04 51°13.874 2°55.598 3.7 220 7.8 101940 95
2003-02-07 13:05 51°13.791 2°55.664 5.8 235 7.9 101940 95